createdAt,value
2023-02-11T00:01:15.436Z,14.85
2023-02-11T00:03:42.498Z,14.18
2023-02-11T00:06:10.747Z,15.95
2023-02-11T00:08:38.618Z,11.25
2023-02-11T00:11:05.900Z,19.20
2023-02-11T00:13:32.902Z,16.05
2023-02-11T00:15:59.859Z,22.20
2023-02-11T00:18:27.749Z,21.80
2023-02-11T00:20:54.738Z,19.27
2023-02-11T00:23:21.747Z,17.85
2023-02-11T00:25:48.969Z,22.02
2023-02-11T00:28:16.118Z,15.50
2023-02-11T00:30:43.260Z,14.00
2023-02-11T00:33:10.457Z,17.98
2023-02-11T00:35:38.753Z,15.35
2023-02-11T00:38:08.103Z,19.65
2023-02-11T00:40:35.194Z,16.98
2023-02-11T00:43:04.029Z,11.90
2023-02-11T00:45:31.095Z,15.88
2023-02-11T00:47:58.188Z,10.25
2023-02-11T00:50:25.613Z,17.17
2023-02-11T00:52:52.630Z,24.45
2023-02-11T00:55:19.651Z,14.90
2023-02-11T00:57:46.656Z,14.60
2023-02-11T01:00:16.846Z,12.63
2023-02-11T01:02:45.039Z,19.30
2023-02-11T01:05:12.036Z,17.20
2023-02-11T01:07:39.146Z,22.33
2023-02-11T01:10:06.397Z,16.50
2023-02-11T01:12:36.197Z,16.13
2023-02-11T01:15:04.741Z,12.45
2023-02-11T01:17:33.550Z,17.10
2023-02-11T01:20:06.128Z,16.33
2023-02-11T01:22:34.481Z,19.58
2023-02-11T01:25:01.539Z,15.68
2023-02-11T01:27:28.729Z,23.38
2023-02-11T01:29:57.710Z,19.20
2023-02-11T01:32:24.915Z,14.77
2023-02-11T01:34:54.873Z,16.80
2023-02-11T01:37:21.912Z,15.05
2023-02-11T01:39:48.884Z,15.15
2023-02-11T01:42:18.045Z,16.42
2023-02-11T01:44:45.226Z,14.68
2023-02-11T01:47:12.246Z,16.98
2023-02-11T01:49:44.509Z,20.67
2023-02-11T01:52:14.238Z,13.60
2023-02-11T01:55:08.318Z,18.75
2023-02-11T01:57:38.034Z,23.38
2023-02-11T02:00:21.614Z,13.90
2023-02-11T02:03:06.724Z,11.70
2023-02-11T02:05:58.410Z,20.52
2023-02-11T02:08:25.424Z,13.38
2023-02-11T02:10:56.600Z,15.40
2023-02-11T02:13:24.767Z,15.70
2023-02-11T02:16:09.955Z,15.80
2023-02-11T02:18:55.964Z,12.75
2023-02-11T02:21:41.789Z,14.13
2023-02-11T02:24:46.163Z,13.55
2023-02-11T02:27:39.440Z,14.48
2023-02-11T02:30:21.324Z,15.95
2023-02-11T02:33:24.052Z,21.95
2023-02-11T02:36:14.702Z,15.43
2023-02-11T02:39:07.459Z,11.35
2023-02-11T02:41:37.086Z,17.13
2023-02-11T02:44:04.792Z,18.35
2023-02-11T02:46:34.055Z,12.90
2023-02-11T02:49:01.305Z,12.60
2023-02-11T02:51:45.733Z,16.95
2023-02-11T02:54:24.478Z,15.30
2023-02-11T02:57:09.976Z,14.20
2023-02-11T03:00:00.033Z,14.23
2023-02-11T03:02:53.086Z,12.00
2023-02-11T03:05:44.681Z,15.57
2023-02-11T03:08:51.429Z,14.82
2023-02-11T03:11:20.366Z,13.98
2023-02-11T03:13:48.829Z,13.05
2023-02-11T03:16:25.299Z,20.05
2023-02-11T03:19:10.343Z,20.38
2023-02-11T03:21:39.360Z,16.35
2023-02-11T03:24:10.833Z,17.85
2023-02-11T03:26:46.602Z,22.45
2023-02-11T03:29:32.066Z,17.90
2023-02-11T03:32:07.568Z,16.35
2023-02-11T03:34:45.712Z,21.52
2023-02-11T03:37:33.356Z,16.65
2023-02-11T03:40:13.654Z,15.25
2023-02-11T03:42:51.779Z,18.15
2023-02-11T03:45:22.382Z,15.93
2023-02-11T03:47:55.178Z,16.02
2023-02-11T03:50:24.114Z,15.48
2023-02-11T03:52:51.662Z,16.42
2023-02-11T03:55:21.162Z,12.25
2023-02-11T03:57:48.795Z,13.80
2023-02-11T04:00:16.245Z,16.60
2023-02-11T04:02:43.663Z,15.55
2023-02-11T04:05:13.137Z,11.23
2023-02-11T04:07:40.214Z,19.38
2023-02-11T04:10:07.791Z,16.70
2023-02-11T04:12:34.777Z,17.75
2023-02-11T04:15:01.724Z,16.65
2023-02-11T04:17:28.754Z,17.95
2023-02-11T04:19:55.805Z,15.00
2023-02-11T04:22:22.809Z,21.98
2023-02-11T04:24:49.790Z,17.35
2023-02-11T04:27:17.053Z,17.33
2023-02-11T04:29:43.987Z,16.42
2023-02-11T04:32:12.321Z,20.20
2023-02-11T04:34:39.494Z,24.70
2023-02-11T04:37:06.679Z,19.20
2023-02-11T04:39:33.713Z,16.48
2023-02-11T04:42:00.769Z,21.23
2023-02-11T04:44:27.711Z,18.95
2023-02-11T04:46:54.827Z,22.30
2023-02-11T04:49:22.018Z,18.08
2023-02-11T04:51:49.638Z,23.67
2023-02-11T04:54:17.141Z,24.25
2023-02-11T04:56:44.358Z,18.08
2023-02-11T04:59:13.049Z,21.00
2023-02-11T05:01:40.577Z,23.15
2023-02-11T05:04:07.707Z,26.17
2023-02-11T05:06:34.863Z,21.77
2023-02-11T05:09:01.932Z,30.30
2023-02-11T05:11:28.983Z,25.85
2023-02-11T05:13:55.986Z,23.13
2023-02-11T05:16:23.453Z,21.15
2023-02-11T05:18:52.522Z,23.10
2023-02-11T05:21:20.486Z,23.65
2023-02-11T05:23:47.907Z,22.35
2023-02-11T05:26:15.327Z,29.85
2023-02-11T05:28:43.096Z,24.77
2023-02-11T05:31:10.439Z,25.77
2023-02-11T05:33:37.927Z,26.02
2023-02-11T05:36:08.448Z,29.02
2023-02-11T05:38:36.667Z,25.77
2023-02-11T05:41:04.485Z,21.92
2023-02-11T05:43:31.577Z,31.25
2023-02-11T05:45:59.101Z,22.25
2023-02-11T05:48:26.155Z,23.42
2023-02-11T05:50:53.060Z,24.40
2023-02-11T05:53:20.170Z,22.55
2023-02-11T05:55:47.158Z,23.05
2023-02-11T05:58:14.130Z,34.65
2023-02-11T06:00:41.121Z,26.23
2023-02-11T06:03:08.191Z,31.65
2023-02-11T06:05:35.198Z,23.33
2023-02-11T06:08:02.223Z,26.98
2023-02-11T06:10:29.246Z,31.95
2023-02-11T06:12:56.310Z,25.55
2023-02-11T06:15:23.354Z,25.92
2023-02-11T06:17:51.733Z,31.73
2023-02-11T06:20:19.029Z,20.33
2023-02-11T06:22:46.252Z,21.58
2023-02-11T06:25:13.419Z,25.58
2023-02-11T06:27:40.690Z,20.65
2023-02-11T06:30:08.635Z,18.80
2023-02-11T06:32:43.843Z,35.17
2023-02-11T06:35:12.757Z,29.80
2023-02-11T06:37:41.124Z,29.40
2023-02-11T06:40:08.544Z,20.55
2023-02-11T06:42:36.341Z,31.50
2023-02-11T06:45:06.175Z,25.05
2023-02-11T06:47:33.295Z,28.20
2023-02-11T06:50:00.229Z,27.75
2023-02-11T06:52:27.277Z,28.90
2023-02-11T06:54:54.247Z,27.65
2023-02-11T06:57:21.315Z,31.35
2023-02-11T06:59:48.337Z,36.05
2023-02-11T07:02:15.418Z,44.38
2023-02-11T07:04:42.472Z,34.80
2023-02-11T07:07:09.518Z,32.10
2023-02-11T07:09:36.470Z,38.95
2023-02-11T07:12:03.821Z,33.25
2023-02-11T07:14:30.798Z,33.50
2023-02-11T07:16:58.155Z,32.72
2023-02-11T07:19:25.133Z,33.83
2023-02-11T07:21:52.110Z,37.60
2023-02-11T07:24:19.045Z,40.10
2023-02-11T07:26:46.139Z,37.83
2023-02-11T07:29:13.110Z,32.90
2023-02-11T07:31:40.307Z,35.33
2023-02-11T07:34:07.434Z,30.80
2023-02-11T07:36:34.513Z,36.88
2023-02-11T07:39:01.544Z,30.55
2023-02-11T07:41:28.627Z,30.60
2023-02-11T07:43:56.100Z,31.45
2023-02-11T07:46:25.665Z,32.38
2023-02-11T07:48:52.894Z,36.45
2023-02-11T07:51:23.383Z,37.90
2023-02-11T07:53:50.796Z,32.28
2023-02-11T07:56:18.993Z,34.03
2023-02-11T07:58:46.796Z,43.22
2023-02-11T08:01:25.098Z,42.53
2023-02-11T08:03:53.325Z,41.10
2023-02-11T08:06:22.078Z,33.53
2023-02-11T08:08:49.574Z,33.70
2023-02-11T08:11:19.186Z,50.53
2023-02-11T08:13:46.492Z,38.38
2023-02-11T08:16:23.280Z,34.97
2023-02-11T08:18:51.412Z,45.45
2023-02-11T08:21:19.110Z,38.05
2023-02-11T08:23:46.764Z,36.20
2023-02-11T08:26:19.557Z,41.17
2023-02-11T08:28:48.425Z,39.50
2023-02-11T08:31:25.008Z,40.75
2023-02-11T08:33:52.263Z,35.05
2023-02-11T08:36:21.837Z,40.80
2023-02-11T08:38:49.196Z,37.50
2023-02-11T08:41:16.248Z,40.00
2023-02-11T08:43:44.393Z,42.30
2023-02-11T08:46:16.342Z,47.08
2023-02-11T08:48:44.342Z,45.55
2023-02-11T08:51:19.515Z,49.30
2023-02-11T08:53:47.097Z,50.25
2023-02-11T08:56:15.417Z,46.90
2023-02-11T08:58:43.282Z,52.30
2023-02-11T09:01:14.743Z,56.72
2023-02-11T09:03:41.873Z,42.70
2023-02-11T09:06:10.808Z,48.38
2023-02-11T09:08:40.455Z,44.40
2023-02-11T09:11:07.832Z,48.58
2023-02-11T09:13:35.002Z,51.40
2023-02-11T09:16:04.512Z,44.53
2023-02-11T09:18:32.294Z,41.42
2023-02-11T09:21:07.807Z,49.20
2023-02-11T09:23:35.126Z,50.88
2023-02-11T09:26:10.465Z,47.97
2023-02-11T09:28:37.575Z,43.92
2023-02-11T09:31:09.627Z,59.65
2023-02-11T09:33:38.647Z,42.53
2023-02-11T09:36:06.840Z,47.28
2023-02-11T09:38:34.418Z,43.17
2023-02-11T09:41:04.092Z,39.85
2023-02-11T09:43:44.244Z,40.72
2023-02-11T09:46:16.211Z,38.65
2023-02-11T09:48:45.694Z,38.42
2023-02-11T09:51:44.794Z,46.90
2023-02-11T09:54:19.354Z,46.92
2023-02-11T09:56:46.477Z,33.75
2023-02-11T09:59:17.692Z,35.13
2023-02-11T10:01:49.113Z,40.25
2023-02-11T10:04:28.228Z,31.25
2023-02-11T10:07:18.749Z,34.85
2023-02-11T10:09:54.009Z,35.08
2023-02-11T10:12:56.593Z,37.30
2023-02-11T10:15:52.201Z,37.92
2023-02-11T10:18:37.406Z,35.60
2023-02-11T10:21:30.849Z,33.75
2023-02-11T10:24:01.856Z,36.78
2023-02-11T10:26:31.665Z,35.78
2023-02-11T10:29:05.664Z,30.80
2023-02-11T10:31:43.678Z,34.60
2023-02-11T10:34:13.892Z,34.80
2023-02-11T10:36:44.742Z,28.65
2023-02-11T10:39:14.046Z,30.20
2023-02-11T10:41:57.312Z,32.58
2023-02-11T10:44:33.953Z,32.80
2023-02-11T10:47:06.144Z,32.55
2023-02-11T10:49:34.758Z,34.55
2023-02-11T10:52:26.959Z,30.13
2023-02-11T10:55:27.936Z,36.22
2023-02-11T10:58:02.865Z,29.95
2023-02-11T11:00:40.934Z,30.50
2023-02-11T11:03:21.783Z,27.38
2023-02-11T11:05:51.878Z,29.88
2023-02-11T11:08:19.683Z,27.02
2023-02-11T11:11:08.658Z,40.22
2023-02-11T11:13:41.074Z,30.13
2023-02-11T11:16:13.896Z,31.55
2023-02-11T11:18:46.812Z,28.33
2023-02-11T11:21:16.022Z,32.40
2023-02-11T11:23:50.417Z,30.30
2023-02-11T11:26:18.202Z,28.38
2023-02-11T11:29:07.721Z,24.35
2023-02-11T11:31:45.184Z,27.23
2023-02-11T11:34:22.192Z,29.73
2023-02-11T11:36:53.060Z,27.48
2023-02-11T11:39:32.631Z,29.58
2023-02-11T11:42:00.859Z,25.48
2023-02-11T11:44:37.476Z,27.15
2023-02-11T11:47:22.067Z,25.20
2023-02-11T11:50:12.122Z,27.67
2023-02-11T11:52:49.743Z,29.27
2023-02-11T11:55:25.362Z,22.13
2023-02-11T11:57:52.516Z,28.30
2023-02-11T12:00:24.000Z,27.17
2023-02-11T12:02:57.049Z,29.23
2023-02-11T12:05:33.051Z,28.85
2023-02-11T12:08:00.028Z,26.20
2023-02-11T12:10:54.737Z,28.27
2023-02-11T12:13:35.769Z,25.35
2023-02-11T12:16:26.464Z,23.08
2023-02-11T12:19:34.056Z,21.10
2023-02-11T12:22:11.166Z,18.40
2023-02-11T12:24:44.084Z,21.08
2023-02-11T12:27:48.628Z,19.80
2023-02-11T12:30:53.247Z,23.60
2023-02-11T12:33:44.936Z,25.20
2023-02-11T12:36:24.073Z,23.40
2023-02-11T12:39:12.195Z,25.00
2023-02-11T12:42:09.526Z,21.10
2023-02-11T12:44:56.018Z,22.30
2023-02-11T12:47:43.622Z,20.40
2023-02-11T12:50:41.680Z,21.08
2023-02-11T12:53:36.642Z,21.17
2023-02-11T12:56:32.706Z,21.75
2023-02-11T12:59:01.640Z,21.95
2023-02-11T13:01:37.374Z,19.42
2023-02-11T13:04:13.184Z,17.92
2023-02-11T13:06:55.512Z,21.00
2023-02-11T13:09:26.843Z,21.30
2023-02-11T13:12:20.659Z,16.85
2023-02-11T13:14:49.956Z,17.33
2023-02-11T13:17:41.606Z,19.35
2023-02-11T13:20:25.503Z,16.80
2023-02-11T13:23:12.775Z,19.50
2023-02-11T13:25:52.964Z,18.27
2023-02-11T13:28:26.418Z,16.38
2023-02-11T13:31:02.612Z,15.23
2023-02-11T13:33:37.782Z,15.63
2023-02-11T13:36:04.951Z,17.33
2023-02-11T13:38:32.781Z,16.90
2023-02-11T13:41:02.697Z,14.30
2023-02-11T13:43:31.503Z,15.02
2023-02-11T13:46:04.818Z,11.82
2023-02-11T13:48:33.358Z,13.82
2023-02-11T13:51:04.924Z,15.27
2023-02-11T13:53:46.774Z,14.95
2023-02-11T13:56:29.664Z,14.88
2023-02-11T13:59:01.465Z,14.57
2023-02-11T14:02:17.752Z,13.93
2023-02-11T14:05:37.831Z,12.65
2023-02-11T14:08:26.228Z,13.95
2023-02-11T14:10:54.502Z,14.02
2023-02-11T14:13:32.802Z,13.02
2023-02-11T14:16:10.762Z,12.25
2023-02-11T14:18:39.328Z,13.63
2023-02-11T14:21:28.968Z,14.45
2023-02-11T14:24:01.997Z,15.73
2023-02-11T14:26:44.355Z,12.68
2023-02-11T14:29:23.011Z,11.93
2023-02-11T14:32:05.366Z,11.30
2023-02-11T14:34:55.558Z,14.25
2023-02-11T14:37:51.094Z,11.02
2023-02-11T14:40:39.549Z,11.98
2023-02-11T14:43:30.007Z,12.10
2023-02-11T14:45:58.474Z,10.07
2023-02-11T14:48:31.469Z,11.00
2023-02-11T14:51:00.856Z,11.63
2023-02-11T14:53:30.257Z,10.50
2023-02-11T14:55:57.581Z,9.15
2023-02-11T14:58:29.591Z,8.90
2023-02-11T15:01:02.537Z,10.65
2023-02-11T15:03:39.302Z,9.70
2023-02-11T15:06:18.922Z,10.65
2023-02-11T15:08:53.522Z,10.18
2023-02-11T15:11:22.687Z,11.05
2023-02-11T15:13:50.521Z,10.02
2023-02-11T15:16:23.895Z,9.77
2023-02-11T15:19:01.421Z,10.18
2023-02-11T15:21:31.106Z,8.98
2023-02-11T15:24:03.301Z,9.50
2023-02-11T15:26:30.776Z,12.95
2023-02-11T15:28:57.883Z,9.63
2023-02-11T15:31:27.264Z,10.68
2023-02-11T15:33:55.261Z,11.48
2023-02-11T15:36:28.753Z,11.27
2023-02-11T15:39:18.677Z,16.52
2023-02-11T15:41:45.797Z,11.35
2023-02-11T15:44:30.607Z,10.73
2023-02-11T15:46:58.139Z,10.55
2023-02-11T15:49:26.484Z,10.82
2023-02-11T15:51:55.614Z,9.27
2023-02-11T15:54:29.475Z,9.77
2023-02-11T15:59:40.648Z,11.80
2023-02-11T16:02:09.888Z,10.85
2023-02-11T16:04:37.734Z,11.15
2023-02-11T16:07:05.259Z,11.48
2023-02-11T16:09:34.817Z,10.82
2023-02-11T16:12:07.547Z,9.55
2023-02-11T16:14:42.296Z,10.77
2023-02-11T16:17:13.067Z,10.00
2023-02-11T16:19:49.158Z,10.07
2023-02-11T16:22:24.969Z,10.57
2023-02-11T16:24:54.725Z,12.45
2023-02-11T16:27:41.280Z,9.18
2023-02-11T16:30:28.980Z,10.65
2023-02-11T16:32:56.003Z,9.60
2023-02-11T16:35:22.942Z,12.35
2023-02-11T16:37:50.002Z,10.70
2023-02-11T16:40:17.192Z,11.60
2023-02-11T16:42:44.173Z,15.32
2023-02-11T16:45:12.130Z,19.02
2023-02-11T16:47:42.607Z,13.02
2023-02-11T16:50:12.158Z,14.70
2023-02-11T16:52:39.192Z,11.98
2023-02-11T16:55:06.755Z,12.57
2023-02-11T16:57:33.878Z,16.02
2023-02-11T17:00:00.992Z,15.63
2023-02-11T17:02:35.007Z,14.48
2023-02-11T17:07:31.056Z,16.25
2023-02-11T17:09:58.575Z,17.55
2023-02-11T17:12:25.909Z,15.23
2023-02-11T17:14:53.859Z,16.58
2023-02-11T17:17:23.259Z,13.65
2023-02-11T17:19:51.151Z,13.98
2023-02-11T17:22:18.794Z,14.57
2023-02-11T17:24:45.977Z,15.77
2023-02-11T17:27:13.208Z,15.57
2023-02-11T17:29:40.214Z,14.38
2023-02-11T17:32:07.276Z,18.02
2023-02-11T17:34:34.417Z,16.27
2023-02-11T17:37:03.201Z,16.13
2023-02-11T17:39:30.226Z,19.15
2023-02-11T17:41:57.167Z,19.73
2023-02-11T17:44:24.137Z,17.65
2023-02-11T17:46:51.256Z,15.40
2023-02-11T17:49:19.273Z,18.88
2023-02-11T17:51:46.689Z,17.55
2023-02-11T17:54:16.922Z,16.20
2023-02-11T17:56:45.118Z,16.73
2023-02-11T17:59:14.080Z,16.05
2023-02-11T18:01:42.348Z,15.07
2023-02-11T18:04:13.630Z,14.68
2023-02-11T18:06:40.863Z,19.30
2023-02-11T18:09:07.911Z,17.15
2023-02-11T18:11:37.185Z,16.67
2023-02-11T18:14:07.782Z,12.52
2023-02-11T18:16:36.691Z,12.23
2023-02-11T18:19:04.057Z,14.02
2023-02-11T18:21:31.044Z,13.90
2023-02-11T18:24:01.121Z,13.57
2023-02-11T18:26:29.812Z,14.13
2023-02-11T18:29:00.557Z,12.77
2023-02-11T18:31:28.138Z,13.40
2023-02-11T18:33:55.363Z,12.18
2023-02-11T18:36:23.008Z,13.57
2023-02-11T18:38:50.098Z,11.70
2023-02-11T18:41:17.140Z,16.80
2023-02-11T18:43:44.189Z,12.30
2023-02-11T18:46:13.303Z,15.60
2023-02-11T18:48:40.956Z,17.35
2023-02-11T18:51:13.613Z,14.88
2023-02-11T18:53:40.887Z,14.18
2023-02-11T18:56:10.754Z,16.08
2023-02-11T18:58:38.365Z,12.52
2023-02-11T19:01:17.778Z,20.08
2023-02-11T19:03:45.651Z,17.30
2023-02-11T19:06:21.822Z,17.60
2023-02-11T19:08:48.980Z,17.23
2023-02-11T19:11:17.960Z,18.40
2023-02-11T19:13:45.428Z,20.13
2023-02-11T19:16:14.235Z,19.33
2023-02-11T19:18:41.286Z,18.13
2023-02-11T19:21:10.288Z,19.52
2023-02-11T19:23:37.747Z,26.20
2023-02-11T19:26:06.467Z,22.70
2023-02-11T19:28:35.408Z,22.58
2023-02-11T19:31:07.245Z,21.83
2023-02-11T19:33:34.326Z,20.15
2023-02-11T19:36:09.506Z,18.45
2023-02-11T19:38:36.608Z,17.17
2023-02-11T19:41:03.557Z,19.05
2023-02-11T19:43:30.747Z,14.98
2023-02-11T19:45:58.498Z,17.02
2023-02-11T19:48:26.057Z,15.98
2023-02-11T19:50:53.430Z,15.05
2023-02-11T19:53:20.791Z,19.05
2023-02-11T19:55:48.319Z,16.70
2023-02-11T19:58:16.483Z,18.30
2023-02-11T20:00:43.757Z,16.65
2023-02-11T20:03:10.852Z,16.20
2023-02-11T20:05:43.463Z,15.43
2023-02-11T20:08:10.503Z,14.55
2023-02-11T20:10:37.442Z,15.30
2023-02-11T20:13:04.560Z,16.33
2023-02-11T20:15:31.749Z,18.08
2023-02-11T20:17:58.840Z,13.20
2023-02-11T20:20:25.864Z,14.20
2023-02-11T20:22:52.863Z,14.48
2023-02-11T20:25:19.886Z,15.98
2023-02-11T20:27:46.966Z,18.13
2023-02-11T20:30:14.450Z,14.50
2023-02-11T20:32:41.580Z,16.38
2023-02-11T20:35:09.722Z,12.10
2023-02-11T20:37:36.776Z,15.60
2023-02-11T20:40:03.919Z,15.25
2023-02-11T20:42:30.954Z,14.13
2023-02-11T20:44:57.926Z,12.40
2023-02-11T20:47:24.964Z,12.30
2023-02-11T20:49:55.086Z,13.35
2023-02-11T20:52:22.102Z,14.65
2023-02-11T20:54:49.025Z,14.38
2023-02-11T20:57:16.050Z,14.55
2023-02-11T20:59:42.940Z,17.38
2023-02-11T21:02:10.330Z,13.38
2023-02-11T21:04:39.135Z,13.15
2023-02-11T21:07:06.304Z,11.85
2023-02-11T21:09:33.716Z,13.05
2023-02-11T21:12:01.648Z,11.15
2023-02-11T21:14:29.281Z,13.30
2023-02-11T21:16:56.746Z,11.90
2023-02-11T21:19:23.977Z,14.57
2023-02-11T21:21:51.223Z,12.25
2023-02-11T21:24:18.239Z,13.43
2023-02-11T21:26:45.419Z,12.55
2023-02-11T21:29:12.389Z,13.75
2023-02-11T21:31:40.225Z,12.77
2023-02-11T21:34:07.550Z,14.77
2023-02-11T21:36:35.027Z,12.68
2023-02-11T21:39:03.889Z,16.17
2023-02-11T21:41:31.003Z,16.48
2023-02-11T21:43:57.954Z,11.80
2023-02-11T21:46:25.385Z,12.25
2023-02-11T21:48:52.686Z,15.60
2023-02-11T21:51:22.533Z,13.02
2023-02-11T21:53:57.792Z,14.05
2023-02-11T21:56:28.986Z,20.13
2023-02-11T21:58:58.350Z,16.05
2023-02-11T22:01:28.643Z,16.95
2023-02-11T22:03:56.316Z,18.45
2023-02-11T22:06:31.161Z,12.18
2023-02-11T22:08:59.528Z,15.35
2023-02-11T22:11:26.502Z,15.85
2023-02-11T22:13:55.512Z,16.52
2023-02-11T22:16:23.343Z,18.17
2023-02-11T22:18:51.536Z,14.45
2023-02-11T22:21:21.424Z,16.73
2023-02-11T22:23:49.454Z,16.08
2023-02-11T22:26:21.850Z,17.65
2023-02-11T22:28:49.936Z,20.95
2023-02-11T22:31:20.088Z,18.90
2023-02-11T22:33:47.529Z,17.58
2023-02-11T22:36:25.976Z,16.58
2023-02-11T22:38:54.116Z,16.70
2023-02-11T22:41:21.098Z,20.00
2023-02-11T22:43:48.261Z,16.25
2023-02-11T22:46:18.002Z,22.15
2023-02-11T22:48:46.167Z,24.85
2023-02-11T22:51:28.608Z,20.88
2023-02-11T22:53:58.402Z,23.02
2023-02-11T22:56:26.126Z,23.92
2023-02-11T22:58:56.553Z,27.23
2023-02-11T23:01:23.649Z,24.00
2023-02-11T23:03:50.802Z,24.75
2023-02-11T23:06:18.213Z,22.70
2023-02-11T23:08:45.501Z,22.77
2023-02-11T23:11:16.641Z,28.23
2023-02-11T23:13:45.034Z,23.02
2023-02-11T23:16:15.426Z,21.55
2023-02-11T23:18:43.988Z,21.02
2023-02-11T23:21:17.552Z,22.38
2023-02-11T23:23:45.792Z,21.85
2023-02-11T23:26:14.879Z,21.25
2023-02-11T23:28:45.933Z,24.55
2023-02-11T23:31:35.413Z,24.92
2023-02-11T23:34:02.603Z,21.58
2023-02-11T23:36:30.369Z,19.10
2023-02-11T23:38:57.425Z,19.95
2023-02-11T23:41:25.449Z,22.60
2023-02-11T23:43:55.518Z,22.95
2023-02-11T23:46:24.001Z,23.58
2023-02-11T23:48:51.819Z,20.08
2023-02-11T23:51:19.913Z,25.15
2023-02-11T23:53:49.113Z,21.60
2023-02-11T23:56:21.146Z,20.52
2023-02-11T23:58:50.189Z,26.23
